Time;durP1;ratioP1;P1;durP2;ratioP2;P2;SDS_P1;SDS_P2;PMS_P1;PMS_P2;Temp;Humidity;BMP_temperature;BMP_pressure;BME280_temperature;BME280_humidity;BME280_pressure;Samples;Min_cycle;Max_cycle;Signal;HPM_P1;HPM_P2
2023/10/04 00:00:34;;;;;;;6.30;2.10;;;;;;;15.31;100.00;100009.56;5033163;28;20033;-87
2023/10/04 00:03:00;;;;;;;6.28;2.45;;;;;;;15.38;100.00;100036.25;5033961;28;20053;-87
2023/10/04 00:05:25;;;;;;;5.18;2.20;;;;;;;15.07;100.00;99995.28;5033333;28;20033;-87
2023/10/04 00:07:52;;;;;;;3.90;2.58;;;;;;;15.11;100.00;100000.25;5014993;28;20196;-87
2023/10/04 00:10:21;;;;;;;5.40;2.63;;;;;;;15.37;100.00;100051.16;5015269;28;20136;-87
2023/10/04 00:12:46;;;;;;;5.72;2.58;;;;;;;15.09;100.00;100010.00;5031794;28;20574;-87
2023/10/04 00:15:13;;;;;;;8.30;2.40;;;;;;;15.18;100.00;100019.94;5033335;28;20029;-87
2023/10/04 00:17:43;;;;;;;3.65;2.42;;;;;;;15.37;100.00;100048.53;5014998;28;20029;-87
2023/10/04 00:20:10;;;;;;;6.65;2.53;;;;;;;15.18;100.00;100021.72;5032975;28;20061;-87
2023/10/04 00:22:38;;;;;;;3.95;2.45;;;;;;;15.46;100.00;100070.75;5014858;28;20036;-87
2023/10/04 00:25:05;;;;;;;5.35;2.55;;;;;;;15.42;100.00;100064.00;5014739;28;20029;-87
2023/10/04 00:27:30;;;;;;;6.07;2.75;;;;;;;15.22;100.00;100049.47;5032779;28;20431;-87
2023/10/04 00:29:56;;;;;;;5.38;2.28;;;;;;;15.14;100.00;100060.41;5015202;28;20025;-87
2023/10/04 00:32:22;;;;;;;4.63;2.85;;;;;;;14.97;100.00;100045.66;5032663;28;20151;-87
2023/10/04 00:34:47;;;;;;;6.65;2.58;;;;;;;14.94;100.00;100045.00;5032492;28;20025;-87
2023/10/04 00:37:15;;;;;;;5.22;2.92;;;;;;;15.04;100.00;100071.53;5014763;28;20484;-87
2023/10/04 00:39:40;;;;;;;4.10;2.63;;;;;;;14.92;100.00;100078.34;5014603;28;20033;-87
2023/10/04 00:42:06;;;;;;;6.88;2.92;;;;;;;14.94;100.00;100089.56;5032847;28;20376;-87
2023/10/04 00:44:35;;;;;;;4.55;2.55;;;;;;;14.81;100.00;100080.72;5032173;28;20074;-87
2023/10/04 00:47:05;;;;;;;5.07;2.47;;;;;;;14.73;100.00;100066.28;5032547;28;20037;-87
2023/10/04 00:49:32;;;;;;;7.05;2.42;;;;;;;14.85;100.00;100083.09;5014698;28;20036;-87
2023/10/04 00:51:59;;;;;;;6.53;3.25;;;;;;;14.65;100.00;100050.13;5032232;28;20026;-87
2023/10/04 00:54:25;;;;;;;7.35;3.20;;;;;;;14.86;100.00;100097.03;5032503;28;20022;-87
2023/10/04 00:56:51;;;;;;;5.43;2.78;;;;;;;14.87;100.00;100102.19;5014395;28;20041;-87
2023/10/04 00:59:17;;;;;;;4.35;2.83;;;;;;;14.64;100.00;100076.44;5032384;28;20112;-87
2023/10/04 01:01:43;;;;;;;5.85;3.45;;;;;;;14.80;100.00;100108.72;5014333;28;20047;-87
2023/10/04 01:04:10;;;;;;;5.00;2.80;;;;;;;14.84;100.00;100123.34;5032334;28;20017;-87
2023/10/04 01:06:37;;;;;;;6.65;2.70;;;;;;;14.77;100.00;100105.44;5031889;28;20092;-87
2023/10/04 01:09:04;;;;;;;4.30;2.50;;;;;;;15.00;100.00;100131.22;5046823;28;20511;-87
2023/10/04 01:11:35;;;;;;;4.75;2.67;;;;;;;14.89;100.00;100121.31;5034168;28;20068;-87
2023/10/04 01:14:18;;;;;;;4.88;3.08;;;;;;;14.88;100.00;100129.28;5034131;28;20029;-87
2023/10/04 01:16:44;;;;;;;4.93;2.95;;;;;;;14.85;100.00;100142.56;5033773;28;20021;-87
2023/10/04 01:19:14;;;;;;;8.43;3.08;;;;;;;14.86;100.00;100158.19;5033915;28;20048;-87
2023/10/04 01:21:40;;;;;;;7.78;3.08;;;;;;;14.70;100.00;100131.97;5033917;28;20096;-87
2023/10/04 01:24:09;;;;;;;3.88;2.83;;;;;;;14.59;100.00;100108.16;5034200;28;20043;-86
2023/10/04 01:26:36;;;;;;;7.22;3.10;;;;;;;14.72;100.00;100126.69;5051750;28;20468;-87
2023/10/04 01:29:10;;;;;;;6.13;2.80;;;;;;;14.59;100.00;100113.41;5052450;28;20456;-87
2023/10/04 01:31:35;;;;;;;3.67;2.17;;;;;;;14.66;100.00;100124.38;5033462;28;20488;-87
2023/10/04 01:34:03;;;;;;;6.30;2.90;;;;;;;14.78;100.00;100141.19;5051886;28;20067;-87
2023/10/04 01:36:31;;;;;;;4.78;2.75;;;;;;;14.99;100.00;100184.59;5053165;28;20415;-87
2023/10/04 01:38:57;;;;;;;7.10;3.10;;;;;;;14.91;100.00;100176.28;5037852;28;20064;-87
2023/10/04 01:41:24;;;;;;;5.03;2.65;;;;;;;14.67;100.00;100145.28;5055774;28;20021;-87
2023/10/04 01:43:53;;;;;;;5.68;2.95;;;;;;;14.85;99.91;100176.66;5037644;28;20029;-87
2023/10/04 01:46:19;;;;;;;6.00;3.15;;;;;;;14.81;99.88;100177.75;5037655;28;20062;-87
2023/10/04 01:48:44;;;;;;;5.78;2.78;;;;;;;14.82;99.90;100185.53;5054302;28;20021;-87
2023/10/04 01:51:10;;;;;;;9.30;3.20;;;;;;;14.78;99.51;100178.75;5037881;28;20029;-87
2023/10/04 01:53:35;;;;;;;5.25;2.78;;;;;;;14.75;98.95;100188.56;5013071;28;20073;-87
2023/10/04 01:56:03;;;;;;;6.90;2.70;;;;;;;14.63;98.76;100187.50;5013426;28;20036;-87
2023/10/04 01:58:28;;;;;;;7.30;2.70;;;;;;;14.28;99.18;100140.41;4996839;28;20041;-87
2023/10/04 02:00:56;;;;;;;7.35;2.58;;;;;;;14.40;98.74;100170.34;5012871;28;20437;-87
2023/10/04 02:03:21;;;;;;;8.98;3.03;;;;;;;14.38;98.72;100188.78;5013352;28;20042;-87
2023/10/04 02:05:56;;;;;;;6.20;2.83;;;;;;;14.32;98.83;100189.09;5012988;28;20026;-87
2023/10/04 02:08:22;;;;;;;6.10;2.67;;;;;;;14.27;99.07;100175.41;5012808;28;20042;-87
2023/10/04 02:10:47;;;;;;;6.45;2.75;;;;;;;14.08;99.19;100140.66;4996633;28;20049;-87
2023/10/04 02:13:16;;;;;;;5.40;2.42;;;;;;;14.15;99.63;100162.94;5013111;28;20593;-87
2023/10/04 02:15:44;;;;;;;6.90;2.47;;;;;;;14.26;99.93;100178.94;5012901;28;20445;-87
2023/10/04 02:18:10;;;;;;;7.22;2.70;;;;;;;14.29;99.95;100181.41;4973901;28;20046;-87
2023/10/04 02:20:35;;;;;;;7.57;2.83;;;;;;;14.34;99.78;100186.41;4973925;28;20059;-87
2023/10/04 02:23:03;;;;;;;7.20;2.80;;;;;;;14.16;99.63;100159.44;4957471;28;20465;-87
2023/10/04 02:25:29;;;;;;;7.80;2.40;;;;;;;14.24;99.51;100178.16;5008007;28;20046;-87
2023/10/04 02:28:00;;;;;;;6.90;3.03;;;;;;;14.04;100.00;100155.69;5012492;28;20497;-87
2023/10/04 02:30:26;;;;;;;5.97;2.58;;;;;;;14.13;99.83;100180.53;4996394;28;20038;-87
2023/10/04 02:32:53;;;;;;;7.63;2.63;;;;;;;14.15;100.00;100182.13;5012506;28;20045;-87
2023/10/04 02:35:34;;;;;;;5.45;2.97;;;;;;;13.84;100.00;100141.00;5009146;28;20394;-87
2023/10/04 02:38:09;;;;;;;8.18;3.30;;;;;;;14.05;100.00;100186.16;4957050;28;20135;-87
2023/10/04 02:40:35;;;;;;;6.97;3.15;;;;;;;14.05;100.00;100182.72;4973616;28;20037;-87
2023/10/04 02:43:00;;;;;;;4.22;2.72;;;;;;;14.14;100.00;100203.19;4957012;28;20043;-87
2023/10/04 02:45:27;;;;;;;5.60;2.92;;;;;;;14.02;100.00;100170.59;4973658;28;20147;-87
2023/10/04 02:47:53;;;;;;;5.82;2.67;;;;;;;14.12;100.00;100195.41;4956907;28;20039;-87
2023/10/04 02:50:25;;;;;;;5.50;2.97;;;;;;;14.12;100.00;100187.56;4992557;28;20593;-87
2023/10/04 02:52:51;;;;;;;7.35;3.20;;;;;;;14.00;99.74;100156.75;4992703;28;20065;-87
2023/10/04 02:55:20;;;;;;;5.75;2.95;;;;;;;14.13;99.77;100185.78;4992949;28;20470;-87
2023/10/04 02:57:49;;;;;;;6.68;3.22;;;;;;;14.30;99.42;100200.59;4992548;28;20161;-88
2023/10/04 03:00:16;;;;;;;5.95;3.03;;;;;;;14.20;99.46;100181.91;4976562;28;20375;-87
2023/10/04 03:02:52;;;;;;;3.17;2.30;;;;;;;14.30;99.18;100197.97;4976372;28;20097;-87
2023/10/04 03:05:19;;;;;;;4.55;2.63;;;;;;;14.36;99.04;100215.97;4976681;28;20121;-87
2023/10/04 03:07:47;;;;;;;7.53;3.05;;;;;;;14.39;98.86;100215.81;4997480;28;20034;-87
2023/10/04 03:10:13;;;;;;;10.40;3.22;;;;;;;13.94;98.79;100144.81;5036958;28;20424;-87
2023/10/04 03:12:41;;;;;;;6.55;2.97;;;;;;;14.20;98.63;100185.38;5036640;28;20068;-87
2023/10/04 03:15:07;;;;;;;7.68;3.55;;;;;;;14.21;98.80;100186.22;5036437;28;20427;-87
2023/10/04 03:17:32;;;;;;;5.28;3.10;;;;;;;14.25;98.77;100192.16;5054158;28;20115;-87
2023/10/04 03:19:58;;;;;;;6.35;3.50;;;;;;;14.31;98.89;100204.91;5052474;28;20115;-87
2023/10/04 03:22:23;;;;;;;6.32;3.45;;;;;;;14.29;98.54;100212.03;5036159;28;20049;-87
2023/10/04 03:24:50;;;;;;;4.55;3.10;;;;;;;14.23;98.79;100206.16;5053637;28;20035;-87
2023/10/04 03:27:15;;;;;;;6.50;3.08;;;;;;;14.40;98.87;100235.84;5053855;28;20029;-88
2023/10/04 03:29:41;;;;;;;8.02;3.58;;;;;;;14.33;99.08;100222.25;5053920;28;20135;-87
2023/10/04 03:32:06;;;;;;;6.55;3.85;;;;;;;14.27;98.96;100222.56;5053787;28;20079;-87
2023/10/04 03:34:32;;;;;;;4.93;2.92;;;;;;;14.36;98.95;100237.78;5053700;28;20025;-87
2023/10/04 03:37:08;;;;;;;7.15;4.00;;;;;;;14.32;99.06;100235.41;5035712;28;20120;-87
2023/10/04 03:39:35;;;;;;;5.75;3.05;;;;;;;14.39;98.77;100255.13;5052457;28;20472;-87
2023/10/04 03:42:01;;;;;;;7.70;3.08;;;;;;;14.12;98.85;100215.53;5053375;28;20071;-87
2023/10/04 03:44:26;;;;;;;9.95;3.88;;;;;;;14.34;98.82;100271.09;5053592;28;20384;-87
2023/10/04 03:46:53;;;;;;;9.88;3.35;;;;;;;14.23;98.78;100261.16;5051855;28;20029;-86
2023/10/04 03:49:21;;;;;;;5.55;3.10;;;;;;;14.21;98.88;100259.56;5053259;28;20021;-86
2023/10/04 03:51:46;;;;;;;4.85;2.75;;;;;;;14.17;99.02;100261.50;5052104;28;20052;-86
2023/10/04 03:54:12;;;;;;;6.30;3.53;;;;;;;14.20;99.15;100268.38;5053367;28;20060;-86
2023/10/04 03:56:41;;;;;;;4.97;3.03;;;;;;;14.01;98.88;100251.88;5053443;28;20060;-87
2023/10/04 03:59:08;;;;;;;5.03;3.15;;;;;;;13.68;98.92;100216.00;5034423;28;20032;-87
2023/10/04 04:01:33;;;;;;;6.05;2.95;;;;;;;13.83;99.23;100269.38;5053174;28;20083;-86
2023/10/04 04:04:03;;;;;;;5.88;2.78;;;;;;;13.63;99.69;100244.19;5053026;28;20464;-86
2023/10/04 04:06:29;;;;;;;5.05;3.17;;;;;;;13.71;100.00;100255.13;5035213;28;20056;-86
2023/10/04 04:08:56;;;;;;;5.63;3.85;;;;;;;13.69;99.96;100263.06;5052725;28;20077;-86
2023/10/04 04:11:22;;;;;;;4.82;3.30;;;;;;;13.72;100.00;100290.84;5053438;28;20021;-86
2023/10/04 04:13:48;;;;;;;5.68;3.10;;;;;;;13.46;100.00;100258.94;5034930;28;20032;-86
2023/10/04 04:16:16;;;;;;;6.45;3.22;;;;;;;13.64;100.00;100288.59;5052782;28;20028;-86
2023/10/04 04:18:42;;;;;;;9.02;3.33;;;;;;;13.37;100.00;100256.78;5053200;28;20021;-86
2023/10/04 04:21:07;;;;;;;6.18;3.30;;;;;;;13.62;100.00;100305.31;5034804;28;20064;-86
2023/10/04 04:23:32;;;;;;;8.00;3.28;;;;;;;13.57;100.00;100296.81;5034999;28;20157;-86
2023/10/04 04:26:00;;;;;;;4.15;3.38;;;;;;;13.39;100.00;100277.63;5052645;28;20033;-86
2023/10/04 04:28:25;;;;;;;4.75;3.10;;;;;;;13.49;100.00;100292.00;5034822;28;20025;-86
2023/10/04 04:30:53;;;;;;;8.95;3.17;;;;;;;13.20;99.77;100254.09;5052253;28;20528;-87
2023/10/04 04:33:18;;;;;;;5.60;3.50;;;;;;;13.54;100.00;100307.47;5034938;28;20116;-87
2023/10/04 04:38:17;;;;;;;10.55;3.20;;;;;;;13.53;99.54;100316.25;5052573;28;20037;-87
2023/10/04 04:40:44;;;;;;;7.63;3.50;;;;;;;13.41;99.57;100299.34;5051252;28;20029;-88
2023/10/04 04:45:51;;;;;;;5.53;2.80;;;;;;;13.53;99.79;100330.19;5052449;28;20484;-87
2023/10/04 04:48:37;;;;;;;9.20;3.63;;;;;;;13.17;99.81;100286.47;5052702;28;20032;-87
2023/10/04 04:51:15;;;;;;;6.28;3.45;;;;;;;13.40;99.52;100322.06;5034205;28;20119;-87
2023/10/04 04:53:49;;;;;;;7.40;2.97;;;;;;;13.37;98.97;100305.66;5034391;28;20166;-88
2023/10/04 04:56:15;;;;;;;4.95;2.90;;;;;;;13.55;99.34;100330.09;5050758;28;20025;-87
2023/10/04 04:58:44;;;;;;;3.67;2.50;;;;;;;13.52;98.87;100325.84;5034283;28;20029;-87
2023/10/04 05:01:13;;;;;;;5.90;2.45;;;;;;;13.25;98.84;100267.00;5052569;28;20107;-87
2023/10/04 05:03:43;;;;;;;3.35;2.60;;;;;;;13.60;98.37;100333.31;5052132;28;20037;-87
2023/10/04 05:06:15;;;;;;;5.00;2.80;;;;;;;13.47;98.04;100299.06;5033823;28;20033;-87
2023/10/04 05:08:41;;;;;;;7.20;2.90;;;;;;;13.70;97.83;100331.97;5051998;28;20088;-87
2023/10/04 05:11:07;;;;;;;8.48;2.42;;;;;;;13.73;97.05;100334.44;5051049;28;20028;-87
2023/10/04 05:13:33;;;;;;;4.35;2.30;;;;;;;13.69;96.88;100327.66;5052116;28;20265;-87
2023/10/04 05:15:59;;;;;;;4.10;2.25;;;;;;;13.64;96.62;100330.47;5033886;28;20029;-87
2023/10/04 05:18:26;;;;;;;10.48;4.10;;;;;;;13.60;96.75;100351.66;5051801;28;20025;-87
2023/10/04 05:20:53;;;;;;;6.72;2.88;;;;;;;13.51;96.30;100345.09;5033637;28;20083;-87
2023/10/04 05:23:21;;;;;;;10.10;3.03;;;;;;;13.52;96.60;100351.16;5052196;28;20095;-87
2023/10/04 05:25:47;;;;;;;5.10;2.53;;;;;;;13.41;96.53;100346.47;5051979;28;20052;-87
2023/10/04 05:28:13;;;;;;;8.80;3.00;;;;;;;13.31;97.09;100339.94;5051642;28;20036;-87
2023/10/04 05:30:44;;;;;;;5.32;2.30;;;;;;;13.26;97.04;100337.53;5051816;28;20029;-88
2023/10/04 05:33:10;;;;;;;5.07;2.70;;;;;;;13.20;96.81;100327.34;5051672;28;20033;-88
2023/10/04 05:35:36;;;;;;;5.25;2.60;;;;;;;13.36;97.14;100346.69;5051653;28;20029;-87
2023/10/04 05:38:05;;;;;;;4.25;2.33;;;;;;;13.48;96.68;100364.41;5051427;28;20044;-87
2023/10/04 05:40:43;;;;;;;5.85;2.20;;;;;;;13.32;96.58;100342.50;5050581;28;20506;-88
2023/10/04 05:43:09;;;;;;;4.18;2.40;;;;;;;13.61;96.27;100374.28;5033659;28;20025;-88
2023/10/04 05:45:36;;;;;;;3.65;2.47;;;;;;;13.61;95.91;100363.81;5051786;28;20514;-87
2023/10/04 05:48:05;;;;;;;4.38;2.22;;;;;;;13.67;95.83;100374.84;5033393;28;20029;-88
2023/10/04 05:50:34;;;;;;;4.53;2.40;;;;;;;13.35;95.41;100300.47;5051687;28;20055;-88
2023/10/04 05:53:05;;;;;;;3.90;2.35;;;;;;;13.84;94.86;100368.81;5033573;28;20135;-88
2023/10/04 05:55:32;;;;;;;4.95;2.50;;;;;;;13.95;94.13;100376.16;5033655;28;20036;-88
2023/10/04 05:57:57;;;;;;;5.13;2.63;;;;;;;13.85;93.91;100346.06;5051244;28;20021;-88
2023/10/04 06:00:33;;;;;;;9.27;2.75;;;;;;;14.17;92.84;100371.53;5033741;28;20488;-88
2023/10/04 06:03:01;;;;;;;4.38;2.45;;;;;;;14.33;92.61;100376.00;5033651;28;20029;-88
2023/10/04 06:05:28;;;;;;;6.55;2.55;;;;;;;14.18;91.82;100338.31;5033633;28;20083;-88
2023/10/04 06:07:56;;;;;;;5.22;2.85;;;;;;;14.41;91.34;100360.72;5049810;28;20511;-88
2023/10/04 06:10:24;;;;;;;7.55;2.70;;;;;;;14.67;90.73;100390.91;5051437;28;20056;-88
2023/10/04 06:12:52;;;;;;;5.25;2.45;;;;;;;14.86;90.10;100389.00;5033417;28;20146;-88
2023/10/04 06:15:18;;;;;;;6.00;2.70;;;;;;;15.07;89.62;100404.53;5033682;28;20384;-88
2023/10/04 06:17:45;;;;;;;7.10;2.53;;;;;;;15.12;88.97;100392.00;5051141;28;20029;-88
2023/10/04 06:20:28;;;;;;;6.55;3.05;;;;;;;15.39;88.35;100408.06;5033316;28;20028;-88
2023/10/04 06:22:56;;;;;;;9.95;3.33;;;;;;;15.57;87.34;100403.56;5034991;28;20025;-88
2023/10/04 06:25:23;;;;;;;6.15;3.05;;;;;;;15.75;86.73;100406.97;5053709;28;20033;-88
2023/10/04 06:27:50;;;;;;;4.05;2.35;;;;;;;15.89;86.32;100417.56;5037286;28;20025;-87
2023/10/04 06:30:20;;;;;;;8.93;3.00;;;;;;;16.13;85.78;100415.31;5054833;28;20025;-88
2023/10/04 06:32:47;;;;;;;5.13;2.45;;;;;;;16.52;84.67;100424.44;5036996;28;20029;-87
2023/10/04 06:35:12;;;;;;;8.65;2.78;;;;;;;16.47;84.75;100377.38;5012364;28;20041;-88
2023/10/04 06:37:38;;;;;;;4.32;2.60;;;;;;;16.71;84.50;100388.22;4996176;28;20414;-87
2023/10/04 06:40:10;;;;;;;6.30;2.58;;;;;;;17.36;83.79;100428.13;5012445;28;20037;-88
2023/10/04 06:42:36;;;;;;;4.43;2.72;;;;;;;17.71;82.25;100402.19;4996223;28;20089;-88
2023/10/04 06:45:01;;;;;;;5.68;2.63;;;;;;;17.93;82.54;100428.03;5012358;28;20034;-87
2023/10/04 06:47:27;;;;;;;6.90;3.00;;;;;;;17.86;82.46;100402.16;4996120;28;20038;-88
2023/10/04 06:49:53;;;;;;;5.22;2.85;;;;;;;17.91;82.23;100393.03;4996047;28;20045;-88
2023/10/04 06:52:18;;;;;;;4.05;2.53;;;;;;;18.21;82.31;100428.88;5012202;28;20034;-88
2023/10/04 06:54:44;;;;;;;7.20;2.63;;;;;;;18.10;81.86;100407.63;4995904;28;20033;-88
2023/10/04 06:57:09;;;;;;;6.20;2.55;;;;;;;18.30;81.72;100424.78;5012053;28;20121;-88
2023/10/04 06:59:35;;;;;;;5.47;2.80;;;;;;;18.14;81.45;100393.28;4995868;28;20104;-88
2023/10/04 07:02:00;;;;;;;4.28;2.45;;;;;;;18.02;81.57;100379.13;5011920;28;20492;-88
2023/10/04 07:04:26;;;;;;;5.68;2.30;;;;;;;18.49;81.24;100414.66;4995768;28;20026;-87
2023/10/04 07:06:51;;;;;;;4.47;2.75;;;;;;;18.55;80.92;100416.91;5044844;28;20036;-88
2023/10/04 07:09:17;;;;;;;3.22;2.40;;;;;;;18.67;80.43;100449.53;5036069;28;20523;-88
2023/10/04 07:11:43;;;;;;;4.35;2.38;;;;;;;18.39;80.78;100405.69;5054283;28;20025;-88
2023/10/04 07:14:09;;;;;;;5.68;3.33;;;;;;;18.51;80.48;100427.78;5035142;28;20021;-87
2023/10/04 07:16:35;;;;;;;4.72;2.63;;;;;;;18.18;80.05;100382.44;5052513;28;20376;-88
2023/10/04 07:19:03;;;;;;;4.03;2.38;;;;;;;18.64;80.27;100447.09;5035913;28;20037;-88
2023/10/04 07:21:28;;;;;;;5.78;2.97;;;;;;;18.68;79.97;100436.22;5035802;28;20025;-88
2023/10/04 07:23:54;;;;;;;6.78;2.90;;;;;;;18.82;80.28;100442.41;5053471;28;20029;-88
2023/10/04 07:26:19;;;;;;;4.55;2.53;;;;;;;18.85;79.77;100437.75;5053850;28;20025;-88
2023/10/04 07:28:46;;;;;;;6.18;2.55;;;;;;;18.62;79.77;100433.16;5035814;28;20412;-88
2023/10/04 07:31:11;;;;;;;5.25;2.42;;;;;;;18.68;80.00;100438.03;5053484;28;20028;-88
2023/10/04 07:33:37;;;;;;;7.00;2.50;;;;;;;18.65;79.65;100433.78;5034977;28;20025;-88
2023/10/04 07:36:03;;;;;;;3.95;2.40;;;;;;;18.68;79.84;100425.69;5053420;28;20453;-88
2023/10/04 07:38:28;;;;;;;7.60;2.83;;;;;;;18.77;79.86;100413.69;5035606;28;20056;-87
2023/10/04 07:40:53;;;;;;;6.10;2.30;;;;;;;18.90;79.46;100417.16;5035889;28;20027;-88
2023/10/04 07:43:19;;;;;;;6.07;2.40;;;;;;;19.27;78.91;100453.38;5035522;28;20028;-88
2023/10/04 07:45:45;;;;;;;4.32;2.50;;;;;;;19.31;78.53;100439.00;5035723;28;20055;-88
2023/10/04 07:48:12;;;;;;;5.75;2.50;;;;;;;19.46;78.59;100451.09;5053524;28;20033;-88
2023/10/04 07:50:38;;;;;;;5.43;2.95;;;;;;;19.31;78.00;100442.47;5053601;28;20408;-87
2023/10/04 07:53:04;;;;;;;7.40;2.75;;;;;;;19.39;77.44;100440.16;5053677;28;20033;-87
2023/10/04 07:55:30;;;;;;;4.63;2.40;;;;;;;19.45;77.37;100428.28;5035523;28;20021;-87
2023/10/04 07:58:04;;;;;;;4.85;2.50;;;;;;;19.60;77.39;100435.13;5053242;28;20032;-87
2023/10/04 08:00:30;;;;;;;3.58;2.38;;;;;;;19.93;77.31;100454.81;5035714;28;20017;-87
2023/10/04 08:03:15;;;;;;;7.75;2.65;;;;;;;19.84;76.06;100431.69;5010709;28;20116;-87
2023/10/04 08:05:43;;;;;;;4.38;2.30;;;;;;;20.12;76.00;100446.38;5011299;28;20120;-87
2023/10/04 08:08:09;;;;;;;3.85;2.05;;;;;;;20.15;75.19;100415.28;5010616;28;20065;-87
2023/10/04 08:10:39;;;;;;;5.95;2.25;;;;;;;20.54;75.12;100450.31;5011039;28;20034;-87
2023/10/04 08:13:05;;;;;;;4.28;2.85;;;;;;;20.59;74.74;100447.31;4994247;28;20042;-87
2023/10/04 08:15:35;;;;;;;3.58;2.80;;;;;;;20.61;74.59;100440.13;4994529;28;20158;-87
2023/10/04 08:18:01;;;;;;;3.85;2.20;;;;;;;20.43;74.16;100434.34;4993047;28;20054;-87
2023/10/04 08:20:29;;;;;;;4.13;2.47;;;;;;;20.33;74.67;100438.66;5009393;28;20022;-88
2023/10/04 08:22:57;;;;;;;2.88;2.25;;;;;;;20.29;75.08;100456.56;5009999;28;20052;-87
2023/10/04 08:25:27;;;;;;;5.60;3.00;;;;;;;20.08;75.80;100444.94;5008971;28;20421;-87
2023/10/04 08:27:53;;;;;;;6.93;3.00;;;;;;;19.72;75.13;100444.03;5009303;28;20088;-88
2023/10/04 08:30:20;;;;;;;4.78;3.10;;;;;;;19.53;75.93;100456.81;4969756;28;20038;-87
2023/10/04 08:32:50;;;;;;;4.07;2.35;;;;;;;19.04;77.12;100405.63;4951419;28;20434;-87
2023/10/04 08:35:28;;;;;;;6.07;2.30;;;;;;;19.08;77.77;100428.22;4971903;28;20527;-87
2023/10/04 08:37:57;;;;;;;4.75;2.53;;;;;;;18.92;77.82;100417.91;4990903;28;20038;-88
2023/10/04 08:40:23;;;;;;;4.10;2.80;;;;;;;18.97;77.90;100466.91;4948085;29;20130;-87
2023/10/04 08:42:50;;;;;;;4.90;2.60;;;;;;;18.76;78.08;100429.63;4950672;29;20039;-87
2023/10/04 08:45:17;;;;;;;6.30;2.65;;;;;;;18.89;78.49;100463.00;4951503;28;20050;-87
2023/10/04 08:47:50;;;;;;;5.80;2.47;;;;;;;18.89;78.72;100475.34;4952054;29;20549;-88
2023/10/04 08:50:20;;;;;;;5.63;2.25;;;;;;;18.79;78.61;100483.03;4951748;29;20046;-87
2023/10/04 08:52:48;;;;;;;7.88;3.25;;;;;;;18.72;78.62;100470.38;4951827;29;20595;-87
2023/10/04 08:55:20;;;;;;;4.97;2.53;;;;;;;18.53;79.18;100462.78;4951611;29;20154;-87
2023/10/04 08:57:46;;;;;;;5.28;2.85;;;;;;;18.55;78.47;100482.88;4951267;29;20585;-87
2023/10/04 09:00:14;;;;;;;6.65;3.30;;;;;;;18.32;78.79;100447.44;4951628;29;20043;-87
2023/10/04 09:02:47;;;;;;;6.10;3.10;;;;;;;18.37;78.23;100481.41;4951654;29;20059;-87
2023/10/04 09:05:17;;;;;;;5.45;3.30;;;;;;;18.24;79.17;100473.47;4951397;29;20043;-88
2023/10/04 09:07:49;;;;;;;6.85;3.13;;;;;;;18.15;79.69;100474.91;4970065;28;20062;-87
2023/10/04 09:10:16;;;;;;;7.68;3.50;;;;;;;18.24;79.50;100491.94;4991932;28;20026;-87
2023/10/04 09:12:44;;;;;;;4.97;2.80;;;;;;;18.06;79.63;100457.06;5029495;28;20444;-88
2023/10/04 09:15:13;;;;;;;6.60;2.63;;;;;;;18.03;79.96;100448.50;5012801;28;20477;-87
2023/10/04 09:17:47;;;;;;;6.78;3.13;;;;;;;18.08;79.76;100449.91;5029607;28;20082;-88
2023/10/04 09:20:15;;;;;;;4.80;2.70;;;;;;;18.32;79.83;100489.63;5029325;28;20029;-87
2023/10/04 09:22:40;;;;;;;6.60;3.40;;;;;;;18.30;80.38;100475.72;5013053;28;20134;-87
2023/10/04 09:25:06;;;;;;;4.63;2.72;;;;;;;18.18;79.71;100477.38;5029336;28;20588;-87
2023/10/04 09:27:31;;;;;;;5.10;2.80;;;;;;;17.91;79.80;100437.00;5029432;28;20029;-88
2023/10/04 09:29:59;;;;;;;5.07;2.55;;;;;;;18.07;80.05;100450.00;5029480;28;20507;-87
2023/10/04 09:32:35;;;;;;;8.15;3.10;;;;;;;18.08;80.22;100446.44;5029174;28;20034;-87
2023/10/04 09:35:01;;;;;;;4.95;3.67;;;;;;;18.28;80.25;100453.03;5029482;28;20140;-87
2023/10/04 09:37:26;;;;;;;4.38;2.80;;;;;;;18.47;80.29;100466.69;5012633;28;20045;-87
2023/10/04 09:40:06;;;;;;;5.65;2.85;;;;;;;18.60;79.96;100474.63;5029318;28;20111;-87
2023/10/04 09:42:47;;;;;;;6.47;3.17;;;;;;;18.51;79.61;100455.00;5029399;28;20067;-87
2023/10/04 09:45:13;;;;;;;8.48;2.95;;;;;;;18.73;79.53;100486.09;5029189;28;20081;-87
2023/10/04 09:47:39;;;;;;;6.05;3.13;;;;;;;18.78;79.78;100491.06;5012795;28;20022;-87
2023/10/04 09:50:25;;;;;;;7.00;3.47;;;;;;;18.68;79.31;100489.00;5039778;28;20480;-87
2023/10/04 09:52:52;;;;;;;6.00;2.85;;;;;;;18.44;79.16;100451.06;5051316;28;20040;-88
2023/10/04 09:55:20;;;;;;;5.88;2.33;;;;;;;18.66;79.45;100487.41;5051384;28;20032;-87
2023/10/04 09:57:47;;;;;;;3.72;2.20;;;;;;;18.59;79.18;100483.50;5035410;28;20113;-87
2023/10/04 10:00:22;;;;;;;4.78;2.53;;;;;;;18.50;79.11;100474.41;5055196;28;20025;-88
2023/10/04 10:02:52;;;;;;;7.32;2.75;;;;;;;18.46;79.40;100475.56;5037794;28;20051;-87
2023/10/04 10:05:26;;;;;;;5.32;2.45;;;;;;;18.41;79.61;100483.78;5055214;28;20049;-87
2023/10/04 10:07:53;;;;;;;6.75;2.55;;;;;;;18.37;79.01;100473.50;5037262;28;20048;-88
2023/10/04 10:10:21;;;;;;;8.32;2.90;;;;;;;18.43;79.22;100483.66;5055196;28;20039;-87
2023/10/04 10:12:50;;;;;;;4.97;3.00;;;;;;;18.52;79.58;100471.66;5055434;28;20033;-87
2023/10/04 10:15:18;;;;;;;5.70;2.35;;;;;;;18.62;79.68;100478.00;5055024;28;20017;-87
2023/10/04 10:17:46;;;;;;;8.45;2.72;;;;;;;18.43;79.41;100452.03;5037412;28;20067;-87
2023/10/04 10:20:12;;;;;;;4.88;2.42;;;;;;;18.52;79.21;100463.75;5055092;28;20033;-87
2023/10/04 10:22:59;;;;;;;4.40;2.22;;;;;;;18.64;79.49;100476.97;5037266;28;20025;-88
2023/10/04 10:25:26;;;;;;;5.32;2.60;;;;;;;18.40;79.34;100428.47;5037073;28;20021;-87
2023/10/04 10:27:58;;;;;;;5.30;2.28;;;;;;;18.77;79.94;100469.09;5055447;28;20037;-87
2023/10/04 10:30:24;;;;;;;4.00;2.15;;;;;;;18.83;80.04;100467.81;5036909;28;20025;-87
2023/10/04 10:33:00;;;;;;;7.57;2.88;;;;;;;18.69;79.58;100443.22;5055168;28;20091;-87
2023/10/04 10:35:57;;;;;;;4.97;2.85;;;;;;;19.01;79.54;100476.31;5054602;28;20383;-87
2023/10/04 10:38:41;;;;;;;5.63;2.53;;;;;;;19.00;78.36;100493.91;5032067;28;20033;-88
2023/10/04 10:41:07;;;;;;;4.45;2.75;;;;;;;18.92;78.14;100480.44;5032310;28;20063;-88
2023/10/04 10:43:36;;;;;;;6.65;2.63;;;;;;;18.94;78.01;100482.00;5015662;28;20041;-87
2023/10/04 10:46:26;;;;;;;5.18;2.70;;;;;;;18.75;77.98;100489.47;5016011;28;20107;-88
2023/10/04 10:48:58;;;;;;;4.85;2.53;;;;;;;18.59;78.00;100457.13;5032158;28;20079;-88
2023/10/04 10:51:42;;;;;;;;;;;;;;;18.52;78.44;100482.22;5032533;28;20276;-87
2023/10/04 10:54:07;;;;;;;3.85;2.03;;;;;;;18.35;78.45;100478.06;5032110;28;20439;-87
2023/10/04 10:56:37;;;;;;;6.28;3.03;;;;;;;18.26;79.54;100454.94;5015167;28;20088;-87
2023/10/04 10:59:05;;;;;;;4.60;2.38;;;;;;;18.43;79.25;100467.84;5032080;28;20118;-87
2023/10/04 11:01:31;;;;;;;5.55;2.58;;;;;;;18.31;79.14;100444.91;5031887;28;20029;-87
2023/10/04 11:03:57;;;;;;;4.95;2.55;;;;;;;18.53;79.22;100476.81;5032139;28;20037;-87
2023/10/04 11:06:22;;;;;;;5.20;2.40;;;;;;;18.44;79.26;100454.53;5031879;28;20037;-87
2023/10/04 11:08:47;;;;;;;4.53;2.35;;;;;;;18.54;79.31;100456.56;5019315;28;20099;-87
2023/10/04 11:11:13;;;;;;;6.47;2.25;;;;;;;18.73;79.39;100482.59;5036254;28;20469;-87
2023/10/04 11:13:43;;;;;;;4.50;2.40;;;;;;;18.71;79.51;100469.53;5054254;28;20047;-87
2023/10/04 11:16:08;;;;;;;4.53;2.97;;;;;;;18.75;79.07;100484.22;5054223;28;20025;-88
2023/10/04 11:18:35;;;;;;;5.53;2.83;;;;;;;18.62;78.72;100456.91;5053809;28;20029;-87
2023/10/04 11:21:03;;;;;;;4.95;2.58;;;;;;;18.66;79.31;100475.06;5036116;28;20037;-87
2023/10/04 11:23:29;;;;;;;6.20;2.55;;;;;;;18.49;78.23;100451.59;5053660;28;20446;-87
2023/10/04 11:25:58;;;;;;;6.53;2.40;;;;;;;18.69;78.31;100501.28;5054166;28;20017;-86
2023/10/04 11:28:24;;;;;;;5.18;2.70;;;;;;;18.61;77.98;100484.25;5035963;28;20025;-87
2023/10/04 11:30:49;;;;;;;5.15;2.85;;;;;;;18.55;78.43;100477.59;5054177;28;20572;-87
2023/10/04 11:33:16;;;;;;;4.20;2.63;;;;;;;18.39;78.23;100455.81;5035486;28;20033;-87